createdAt,value
2023-02-27T00:03:11.932Z,2.20
2023-02-27T00:08:14.119Z,2.25
2023-02-27T00:13:14.856Z,2.55
2023-02-27T00:18:15.506Z,2.80
2023-02-27T00:23:17.505Z,3.00
2023-02-27T00:28:18.180Z,2.40
2023-02-27T00:33:19.080Z,2.30
2023-02-27T00:38:21.132Z,2.65
2023-02-27T00:43:21.802Z,3.05
2023-02-27T00:48:23.901Z,2.60
2023-02-27T00:53:25.966Z,2.72
2023-02-27T00:58:28.036Z,2.78
2023-02-27T01:03:28.889Z,2.28
2023-02-27T01:08:30.871Z,3.00
2023-02-27T01:13:31.596Z,3.08
2023-02-27T01:18:32.583Z,3.58
2023-02-27T01:23:34.663Z,2.90
2023-02-27T01:28:35.404Z,2.50
2023-02-27T01:33:36.178Z,2.55
2023-02-27T01:38:38.642Z,2.65
2023-02-27T01:43:55.536Z,2.20
2023-02-27T01:48:59.823Z,1.98
2023-02-27T01:54:04.033Z,2.08
2023-02-27T01:59:08.465Z,2.53
2023-02-27T02:04:16.907Z,2.78
2023-02-27T02:09:21.128Z,1.92
2023-02-27T02:14:21.811Z,1.88
2023-02-27T02:19:43.587Z,2.40
2023-02-27T02:25:19.508Z,1.70
2023-02-27T02:30:56.266Z,2.22
2023-02-27T02:36:30.994Z,2.45
2023-02-27T02:41:46.110Z,1.90
2023-02-27T02:46:53.146Z,2.10
2023-02-27T02:52:02.233Z,2.55
2023-02-27T02:57:10.144Z,2.00
2023-02-27T03:02:15.513Z,2.30
2023-02-27T03:07:22.497Z,2.17
2023-02-27T03:12:28.283Z,2.72
2023-02-27T03:17:40.287Z,2.40
2023-02-27T03:22:45.454Z,2.05
2023-02-27T03:27:53.561Z,2.10
2023-02-27T03:33:00.018Z,1.83
2023-02-27T03:38:06.135Z,2.25
2023-02-27T03:43:19.633Z,1.92
2023-02-27T03:48:25.669Z,2.25
2023-02-27T03:53:32.335Z,1.60
2023-02-27T03:58:34.919Z,1.90
2023-02-27T04:03:42.479Z,1.90
2023-02-27T04:08:57.870Z,1.83
2023-02-27T04:14:18.475Z,1.80
2023-02-27T04:19:32.489Z,2.28
2023-02-27T04:24:39.719Z,2.45
2023-02-27T04:29:53.839Z,2.30
2023-02-27T04:34:59.001Z,2.80
2023-02-27T04:40:06.474Z,2.33
2023-02-27T04:45:13.155Z,2.63
2023-02-27T04:50:20.656Z,2.70
2023-02-27T04:55:25.345Z,2.25
2023-02-27T05:00:29.677Z,2.42
2023-02-27T05:05:35.157Z,2.85
2023-02-27T05:10:41.190Z,3.00
2023-02-27T05:15:47.935Z,3.22
2023-02-27T05:20:57.406Z,2.95
2023-02-27T05:26:03.323Z,2.65
2023-02-27T05:31:14.083Z,2.92
2023-02-27T05:36:18.892Z,2.45
2023-02-27T05:41:27.619Z,2.65
2023-02-27T05:46:34.494Z,3.00
2023-02-27T05:51:38.612Z,3.05
2023-02-27T05:56:41.140Z,3.40
2023-02-27T06:01:45.839Z,2.63
2023-02-27T06:06:46.996Z,2.97
2023-02-27T06:11:48.017Z,3.70
2023-02-27T06:16:50.001Z,3.03
2023-02-27T06:21:50.907Z,2.90
2023-02-27T06:26:51.570Z,2.78
2023-02-27T06:31:53.584Z,3.17
2023-02-27T06:36:54.350Z,3.80
2023-02-27T06:41:55.101Z,3.47
2023-02-27T06:46:57.080Z,2.60
2023-02-27T06:51:57.718Z,3.00
2023-02-27T06:56:58.452Z,3.58
2023-02-27T07:02:00.651Z,3.97
2023-02-27T07:07:36.368Z,3.65
2023-02-27T07:12:21.994Z,3.65
2023-02-27T07:17:24.009Z,4.15
2023-02-27T07:22:24.705Z,4.15
2023-02-27T07:27:25.401Z,4.38
2023-02-27T07:32:27.530Z,3.65
2023-02-27T07:37:28.339Z,3.63
2023-02-27T07:42:29.098Z,3.38
2023-02-27T07:47:31.685Z,3.50
2023-02-27T07:52:32.381Z,3.40
2023-02-27T07:57:33.095Z,3.80
2023-02-27T08:02:35.380Z,3.78
2023-02-27T08:07:37.560Z,3.70
2023-02-27T08:12:39.279Z,3.65
2023-02-27T08:17:41.272Z,3.35
2023-02-27T08:22:42.478Z,4.10
2023-02-27T08:27:44.191Z,3.65
2023-02-27T08:32:53.385Z,3.53
2023-02-27T08:37:54.706Z,3.53
2023-02-27T08:42:55.414Z,4.78
2023-02-27T08:47:57.413Z,3.90
2023-02-27T08:52:58.126Z,4.57
2023-02-27T08:57:58.741Z,3.90
2023-02-27T09:03:01.334Z,3.60
2023-02-27T09:08:02.278Z,3.78
2023-02-27T09:13:02.979Z,3.28
2023-02-27T09:18:06.930Z,3.72
2023-02-27T09:23:08.123Z,4.68
2023-02-27T09:28:09.141Z,3.25
2023-02-27T09:33:11.189Z,3.47
2023-02-27T09:38:13.761Z,3.33
2023-02-27T09:43:19.146Z,3.28
2023-02-27T09:48:29.991Z,3.00
2023-02-27T09:53:35.671Z,2.78
2023-02-27T09:58:45.275Z,2.33
2023-02-27T10:04:11.087Z,2.20
2023-02-27T10:09:30.122Z,2.17
2023-02-27T10:14:40.620Z,1.95
2023-02-27T10:19:47.971Z,1.90
2023-02-27T10:24:52.321Z,1.90
2023-02-27T10:29:58.033Z,1.73
2023-02-27T10:35:09.683Z,1.63
2023-02-27T10:40:16.208Z,2.00
2023-02-27T10:45:18.157Z,1.95
2023-02-27T10:50:26.343Z,1.50
2023-02-27T10:55:29.050Z,1.33
2023-02-27T11:00:41.513Z,1.70
2023-02-27T11:05:44.683Z,2.38
2023-02-27T11:11:01.157Z,2.20
2023-02-27T11:16:06.294Z,2.40
2023-02-27T11:21:24.002Z,2.15
2023-02-27T11:26:33.144Z,2.33
2023-02-27T11:31:36.474Z,2.47
2023-02-27T11:36:44.040Z,2.15
2023-02-27T11:41:45.850Z,2.10
2023-02-27T11:46:48.878Z,1.45
2023-02-27T11:52:03.450Z,1.50
2023-02-27T11:57:25.051Z,1.23
2023-02-27T12:02:31.377Z,1.15
2023-02-27T12:07:39.697Z,1.95
2023-02-27T12:12:54.139Z,1.92
2023-02-27T12:18:04.619Z,1.55
2023-02-27T12:23:17.589Z,1.80
2023-02-27T12:28:49.166Z,1.55
2023-02-27T12:33:57.160Z,1.48
2023-02-27T12:38:59.356Z,1.30
2023-02-27T12:44:13.569Z,1.42
2023-02-27T12:49:31.002Z,1.58
2023-02-27T12:54:44.136Z,1.25
2023-02-27T12:59:59.069Z,0.90
2023-02-27T13:05:10.251Z,1.20
2023-02-27T13:10:19.907Z,0.90
2023-02-27T13:15:24.865Z,1.15
2023-02-27T13:20:36.277Z,0.90
2023-02-27T13:25:41.671Z,0.90
2023-02-27T13:30:45.516Z,0.77
2023-02-27T13:35:52.014Z,1.00
2023-02-27T13:40:54.577Z,0.85
2023-02-27T13:45:57.891Z,0.80
2023-02-27T13:50:58.686Z,0.80
2023-02-27T13:56:20.700Z,0.93
2023-02-27T14:01:28.650Z,0.70
2023-02-27T14:06:30.938Z,0.60
2023-02-27T14:11:39.805Z,0.68
2023-02-27T14:16:58.180Z,0.60
2023-02-27T14:22:02.130Z,0.57
2023-02-27T14:27:05.955Z,1.15
2023-02-27T14:32:08.553Z,0.60
2023-02-27T14:37:17.312Z,0.47
2023-02-27T14:42:33.918Z,0.60
2023-02-27T14:47:37.993Z,0.60
2023-02-27T14:52:43.336Z,0.52
2023-02-27T14:57:57.553Z,0.50
2023-02-27T15:02:59.654Z,0.77
2023-02-27T15:08:00.567Z,0.70
2023-02-27T15:13:03.591Z,0.60
2023-02-27T15:18:04.501Z,0.70
2023-02-27T15:23:23.412Z,0.80
2023-02-27T15:28:27.766Z,0.85
2023-02-27T15:33:33.513Z,1.17
2023-02-27T15:38:36.071Z,0.70
2023-02-27T15:43:38.333Z,0.85
2023-02-27T15:48:39.465Z,0.45
2023-02-27T15:53:49.236Z,0.60
2023-02-27T15:58:54.440Z,0.80
2023-02-27T16:03:57.562Z,0.80
2023-02-27T16:09:01.026Z,1.00
2023-02-27T16:14:03.420Z,1.00
2023-02-27T16:19:17.024Z,0.75
2023-02-27T16:24:22.373Z,1.02
2023-02-27T16:29:31.560Z,0.88
2023-02-27T16:34:45.069Z,0.98
2023-02-27T16:39:46.879Z,0.70
2023-02-27T16:44:49.037Z,1.17
2023-02-27T16:49:50.063Z,0.90
2023-02-27T16:54:50.824Z,1.10
2023-02-27T16:59:53.001Z,0.80
2023-02-27T17:04:54.040Z,0.95
2023-02-27T17:09:54.836Z,0.98
2023-02-27T17:14:57.358Z,0.88
2023-02-27T17:19:58.229Z,1.00
2023-02-27T17:24:59.100Z,1.00
2023-02-27T17:30:01.366Z,0.95
2023-02-27T17:35:02.138Z,1.58
2023-02-27T17:40:04.310Z,1.45
2023-02-27T17:45:08.210Z,1.33
2023-02-27T17:50:09.776Z,1.60
2023-02-27T17:55:11.680Z,1.38
2023-02-27T18:00:16.191Z,1.70
2023-02-27T18:05:17.031Z,1.67
2023-02-27T18:10:17.941Z,1.40
2023-02-27T18:15:20.297Z,1.20
2023-02-27T18:20:21.079Z,1.75
2023-02-27T18:25:23.482Z,1.48
2023-02-27T18:30:25.793Z,1.90
2023-02-27T18:35:26.788Z,2.08
2023-02-27T18:40:27.738Z,1.75
2023-02-27T18:45:30.611Z,1.83
2023-02-27T18:50:31.788Z,1.85
2023-02-27T18:55:32.621Z,1.98
2023-02-27T19:00:34.728Z,2.33
2023-02-27T19:05:41.440Z,2.28
2023-02-27T19:10:42.456Z,2.10
2023-02-27T19:15:44.748Z,2.30
2023-02-27T19:20:46.636Z,1.80
2023-02-27T19:25:49.014Z,2.38
2023-02-27T19:30:51.110Z,2.17
2023-02-27T19:35:52.395Z,3.45
2023-02-27T19:40:53.420Z,3.45
2023-02-27T19:45:55.701Z,3.55
2023-02-27T19:50:56.405Z,4.72
2023-02-27T19:56:01.487Z,4.70
2023-02-27T20:01:04.034Z,4.95
2023-02-27T20:06:06.378Z,4.60
2023-02-27T20:11:07.177Z,5.43
2023-02-27T20:16:11.300Z,5.15
2023-02-27T20:21:14.850Z,5.32
2023-02-27T20:26:18.730Z,5.28
2023-02-27T20:31:23.119Z,5.32
2023-02-27T20:36:24.397Z,4.32
2023-02-27T20:41:29.035Z,4.72
2023-02-27T20:46:31.958Z,3.95
2023-02-27T20:51:35.130Z,4.10
2023-02-27T20:56:37.885Z,3.85
2023-02-27T21:01:40.325Z,4.47
2023-02-27T21:06:41.106Z,4.22
2023-02-27T21:11:41.870Z,5.50
2023-02-27T21:16:43.891Z,5.93
2023-02-27T21:21:44.655Z,6.30
2023-02-27T21:26:45.835Z,6.38
2023-02-27T21:31:49.846Z,6.53
2023-02-27T21:36:51.578Z,5.63
2023-02-27T21:41:53.169Z,6.07
2023-02-27T21:46:55.839Z,5.70
2023-02-27T21:51:57.089Z,6.90
2023-02-27T21:57:01.763Z,5.75
2023-02-27T22:02:03.990Z,5.68
2023-02-27T22:07:07.147Z,5.40
2023-02-27T22:12:07.973Z,6.72
2023-02-27T22:17:10.429Z,5.88
2023-02-27T22:22:11.107Z,5.32
2023-02-27T22:27:11.795Z,5.85
2023-02-27T22:32:13.815Z,6.22
2023-02-27T22:37:16.186Z,5.93
2023-02-27T22:42:16.869Z,5.50
2023-02-27T22:47:18.875Z,5.13
2023-02-27T22:52:20.481Z,5.75
2023-02-27T22:57:21.166Z,4.40
2023-02-27T23:02:23.165Z,5.65
2023-02-27T23:07:23.843Z,5.18
2023-02-27T23:12:26.556Z,5.18
2023-02-27T23:17:29.384Z,5.28
2023-02-27T23:22:33.628Z,5.10
2023-02-27T23:27:34.615Z,5.20
2023-02-27T23:32:43.466Z,5.80
2023-02-27T23:37:44.225Z,5.30
2023-02-27T23:43:02.370Z,4.50
2023-02-27T23:48:04.605Z,4.57
2023-02-27T23:53:06.687Z,4.35
2023-02-27T23:58:09.308Z,4.40
